sensor_id;sensor_type;location;lat;lon;timestamp;temperature;humidity
22006;DHT22;11167;46.988;15.470;2023-07-22T00:00:45;21.60;81.90
22006;DHT22;11167;46.988;15.470;2023-07-22T00:02:48;21.60;81.30
22006;DHT22;11167;46.988;15.470;2023-07-22T00:04:50;21.60;81.30
22006;DHT22;11167;46.988;15.470;2023-07-22T00:06:53;21.60;81.30
22006;DHT22;11167;46.988;15.470;2023-07-22T00:08:54;21.60;81.30
22006;DHT22;11167;46.988;15.470;2023-07-22T00:10:54;21.60;81.40
22006;DHT22;11167;46.988;15.470;2023-07-22T00:12:55;21.60;81.30
22006;DHT22;11167;46.988;15.470;2023-07-22T00:14:57;21.60;81.40
22006;DHT22;11167;46.988;15.470;2023-07-22T00:16:58;21.50;81.40
22006;DHT22;11167;46.988;15.470;2023-07-22T00:18:59;21.60;81.50
22006;DHT22;11167;46.988;15.470;2023-07-22T00:21:00;21.50;81.40
22006;DHT22;11167;46.988;15.470;2023-07-22T00:23:01;21.50;81.40
22006;DHT22;11167;46.988;15.470;2023-07-22T00:25:02;21.50;82.30
22006;DHT22;11167;46.988;15.470;2023-07-22T00:27:04;21.50;81.50
22006;DHT22;11167;46.988;15.470;2023-07-22T00:29:06;21.50;81.60
22006;DHT22;11167;46.988;15.470;2023-07-22T00:31:09;21.40;81.50
22006;DHT22;11167;46.988;15.470;2023-07-22T00:33:10;21.50;81.60
22006;DHT22;11167;46.988;15.470;2023-07-22T00:35:11;21.40;81.50
22006;DHT22;11167;46.988;15.470;2023-07-22T00:37:13;21.40;81.50
22006;DHT22;11167;46.988;15.470;2023-07-22T00:39:15;21.40;81.60
22006;DHT22;11167;46.988;15.470;2023-07-22T00:41:16;21.40;81.60
22006;DHT22;11167;46.988;15.470;2023-07-22T00:43:17;21.40;81.60
22006;DHT22;11167;46.988;15.470;2023-07-22T00:45:19;21.40;81.60
22006;DHT22;11167;46.988;15.470;2023-07-22T00:47:20;21.40;81.60
22006;DHT22;11167;46.988;15.470;2023-07-22T00:49:22;21.30;81.60
22006;DHT22;11167;46.988;15.470;2023-07-22T00:51:25;21.30;81.60
22006;DHT22;11167;46.988;15.470;2023-07-22T00:53:26;21.30;81.60
22006;DHT22;11167;46.988;15.470;2023-07-22T00:55:27;21.30;81.60
22006;DHT22;11167;46.988;15.470;2023-07-22T00:57:31;21.30;82.40
22006;DHT22;11167;46.988;15.470;2023-07-22T00:59:32;21.30;81.60
22006;DHT22;11167;46.988;15.470;2023-07-22T01:01:33;21.30;81.70
22006;DHT22;11167;46.988;15.470;2023-07-22T01:03:34;21.30;81.70
22006;DHT22;11167;46.988;15.470;2023-07-22T01:05:36;21.30;81.70
22006;DHT22;11167;46.988;15.470;2023-07-22T01:07:38;21.20;81.60
22006;DHT22;11167;46.988;15.470;2023-07-22T01:09:40;21.20;81.60
22006;DHT22;11167;46.988;15.470;2023-07-22T01:11:41;21.20;81.70
22006;DHT22;11167;46.988;15.470;2023-07-22T01:13:42;21.20;81.70
22006;DHT22;11167;46.988;15.470;2023-07-22T01:15:44;21.20;81.70
22006;DHT22;11167;46.988;15.470;2023-07-22T01:17:45;21.20;81.70
22006;DHT22;11167;46.988;15.470;2023-07-22T01:19:46;21.20;81.80
22006;DHT22;11167;46.988;15.470;2023-07-22T01:21:50;21.10;81.70
22006;DHT22;11167;46.988;15.470;2023-07-22T01:23:52;21.10;81.70
22006;DHT22;11167;46.988;15.470;2023-07-22T01:25:54;21.10;81.80
22006;DHT22;11167;46.988;15.470;2023-07-22T01:27:55;21.10;81.80
22006;DHT22;11167;46.988;15.470;2023-07-22T01:29:57;21.10;81.80
22006;DHT22;11167;46.988;15.470;2023-07-22T01:31:58;21.00;81.70
22006;DHT22;11167;46.988;15.470;2023-07-22T01:34:00;21.10;81.90
22006;DHT22;11167;46.988;15.470;2023-07-22T01:36:01;21.10;81.90
22006;DHT22;11167;46.988;15.470;2023-07-22T01:38:02;21.00;81.80
22006;DHT22;11167;46.988;15.470;2023-07-22T01:40:06;21.00;81.90
22006;DHT22;11167;46.988;15.470;2023-07-22T01:42:09;21.00;82.10
22006;DHT22;11167;46.988;15.470;2023-07-22T01:44:10;21.00;81.90
22006;DHT22;11167;46.988;15.470;2023-07-22T01:46:13;21.00;81.90
22006;DHT22;11167;46.988;15.470;2023-07-22T01:48:14;21.00;81.90
22006;DHT22;11167;46.988;15.470;2023-07-22T01:50:15;21.00;81.90
22006;DHT22;11167;46.988;15.470;2023-07-22T01:52:18;21.00;81.90
22006;DHT22;11167;46.988;15.470;2023-07-22T01:54:19;20.90;81.90
22006;DHT22;11167;46.988;15.470;2023-07-22T01:56:20;20.90;82.00
22006;DHT22;11167;46.988;15.470;2023-07-22T01:58:21;20.90;81.90
22006;DHT22;11167;46.988;15.470;2023-07-22T02:00:22;20.90;81.90
22006;DHT22;11167;46.988;15.470;2023-07-22T02:02:24;20.90;82.00
22006;DHT22;11167;46.988;15.470;2023-07-22T02:04:26;20.90;82.00
22006;DHT22;11167;46.988;15.470;2023-07-22T02:06:28;20.90;82.10
22006;DHT22;11167;46.988;15.470;2023-07-22T02:08:29;20.80;82.00
22006;DHT22;11167;46.988;15.470;2023-07-22T02:10:30;20.80;82.10
22006;DHT22;11167;46.988;15.470;2023-07-22T02:12:32;20.90;82.10
22006;DHT22;11167;46.988;15.470;2023-07-22T02:14:33;20.80;82.10
22006;DHT22;11167;46.988;15.470;2023-07-22T02:16:35;20.80;82.10
22006;DHT22;11167;46.988;15.470;2023-07-22T02:18:37;20.80;82.10
22006;DHT22;11167;46.988;15.470;2023-07-22T02:20:38;20.80;82.10
22006;DHT22;11167;46.988;15.470;2023-07-22T02:22:42;20.80;82.20
22006;DHT22;11167;46.988;15.470;2023-07-22T02:24:43;20.80;82.30
22006;DHT22;11167;46.988;15.470;2023-07-22T02:26:44;20.80;82.20
22006;DHT22;11167;46.988;15.470;2023-07-22T02:28:46;20.80;82.30
22006;DHT22;11167;46.988;15.470;2023-07-22T02:30:48;20.70;82.20
22006;DHT22;11167;46.988;15.470;2023-07-22T02:32:49;20.80;82.30
22006;DHT22;11167;46.988;15.470;2023-07-22T02:34:50;20.70;83.10
22006;DHT22;11167;46.988;15.470;2023-07-22T02:36:51;20.70;82.20
22006;DHT22;11167;46.988;15.470;2023-07-22T02:38:52;20.70;82.30
22006;DHT22;11167;46.988;15.470;2023-07-22T02:40:53;20.70;82.30
22006;DHT22;11167;46.988;15.470;2023-07-22T02:42:54;20.70;82.40
22006;DHT22;11167;46.988;15.470;2023-07-22T02:44:55;20.70;82.40
22006;DHT22;11167;46.988;15.470;2023-07-22T02:46:56;20.70;82.40
22006;DHT22;11167;46.988;15.470;2023-07-22T02:48:58;20.60;82.30
22006;DHT22;11167;46.988;15.470;2023-07-22T02:51:05;20.60;82.40
22006;DHT22;11167;46.988;15.470;2023-07-22T02:53:06;20.60;82.40
22006;DHT22;11167;46.988;15.470;2023-07-22T02:55:16;20.60;82.40
22006;DHT22;11167;46.988;15.470;2023-07-22T02:57:20;20.60;82.40
22006;DHT22;11167;46.988;15.470;2023-07-22T02:59:21;20.60;82.40
22006;DHT22;11167;46.988;15.470;2023-07-22T03:01:22;20.60;82.40
22006;DHT22;11167;46.988;15.470;2023-07-22T03:03:25;20.60;82.40
22006;DHT22;11167;46.988;15.470;2023-07-22T03:05:27;20.50;82.40
22006;DHT22;11167;46.988;15.470;2023-07-22T03:07:29;20.50;82.40
22006;DHT22;11167;46.988;15.470;2023-07-22T03:09:30;20.50;82.40
22006;DHT22;11167;46.988;15.470;2023-07-22T03:11:31;20.50;82.50
22006;DHT22;11167;46.988;15.470;2023-07-22T03:13:32;20.50;82.50
22006;DHT22;11167;46.988;15.470;2023-07-22T03:15:34;20.50;82.60
22006;DHT22;11167;46.988;15.470;2023-07-22T03:17:36;20.50;82.60
22006;DHT22;11167;46.988;15.470;2023-07-22T03:19:37;20.40;82.50
22006;DHT22;11167;46.988;15.470;2023-07-22T03:21:38;20.50;82.60
22006;DHT22;11167;46.988;15.470;2023-07-22T03:23:39;20.40;82.60
22006;DHT22;11167;46.988;15.470;2023-07-22T03:25:40;20.40;82.60
22006;DHT22;11167;46.988;15.470;2023-07-22T03:27:42;20.40;82.60
22006;DHT22;11167;46.988;15.470;2023-07-22T03:29:44;20.40;82.60
22006;DHT22;11167;46.988;15.470;2023-07-22T03:31:45;20.40;82.70
22006;DHT22;11167;46.988;15.470;2023-07-22T03:33:46;20.40;82.70
22006;DHT22;11167;46.988;15.470;2023-07-22T03:35:47;20.30;82.70
22006;DHT22;11167;46.988;15.470;2023-07-22T03:37:48;20.40;82.80
22006;DHT22;11167;46.988;15.470;2023-07-22T03:39:49;20.40;82.80
22006;DHT22;11167;46.988;15.470;2023-07-22T03:41:51;20.40;82.80
22006;DHT22;11167;46.988;15.470;2023-07-22T03:43:52;20.40;82.80
22006;DHT22;11167;46.988;15.470;2023-07-22T03:45:54;20.30;82.80
22006;DHT22;11167;46.988;15.470;2023-07-22T03:47:59;20.30;82.80
22006;DHT22;11167;46.988;15.470;2023-07-22T03:50:01;20.30;82.80
22006;DHT22;11167;46.988;15.470;2023-07-22T03:52:02;20.30;82.80
22006;DHT22;11167;46.988;15.470;2023-07-22T03:54:03;20.30;82.80
22006;DHT22;11167;46.988;15.470;2023-07-22T03:56:04;20.30;82.80
22006;DHT22;11167;46.988;15.470;2023-07-22T03:58:05;20.30;82.80
22006;DHT22;11167;46.988;15.470;2023-07-22T04:00:07;20.30;82.80
22006;DHT22;11167;46.988;15.470;2023-07-22T04:02:12;20.30;82.90
22006;DHT22;11167;46.988;15.470;2023-07-22T04:04:15;20.20;82.80
22006;DHT22;11167;46.988;15.470;2023-07-22T04:06:20;20.30;82.90
22006;DHT22;11167;46.988;15.470;2023-07-22T04:08:22;20.20;82.90
22006;DHT22;11167;46.988;15.470;2023-07-22T04:10:23;20.20;82.90
22006;DHT22;11167;46.988;15.470;2023-07-22T04:12:24;20.20;82.90
22006;DHT22;11167;46.988;15.470;2023-07-22T04:14:26;20.20;82.90
22006;DHT22;11167;46.988;15.470;2023-07-22T04:16:27;20.20;83.00
22006;DHT22;11167;46.988;15.470;2023-07-22T04:18:28;20.20;83.00
22006;DHT22;11167;46.988;15.470;2023-07-22T04:20:31;20.20;82.90
22006;DHT22;11167;46.988;15.470;2023-07-22T04:22:32;20.20;83.00
22006;DHT22;11167;46.988;15.470;2023-07-22T04:24:34;20.10;83.00
22006;DHT22;11167;46.988;15.470;2023-07-22T04:26:35;20.10;82.90
22006;DHT22;11167;46.988;15.470;2023-07-22T04:28:36;20.10;83.00
22006;DHT22;11167;46.988;15.470;2023-07-22T04:30:38;20.10;83.00
22006;DHT22;11167;46.988;15.470;2023-07-22T04:32:40;20.10;83.00
22006;DHT22;11167;46.988;15.470;2023-07-22T04:34:47;20.10;83.10
22006;DHT22;11167;46.988;15.470;2023-07-22T04:36:48;20.10;83.10
22006;DHT22;11167;46.988;15.470;2023-07-22T04:38:49;20.10;83.10
22006;DHT22;11167;46.988;15.470;2023-07-22T04:40:51;20.10;83.10
22006;DHT22;11167;46.988;15.470;2023-07-22T04:42:52;20.00;83.00
22006;DHT22;11167;46.988;15.470;2023-07-22T04:44:53;20.10;83.20
22006;DHT22;11167;46.988;15.470;2023-07-22T04:46:54;20.00;83.10
22006;DHT22;11167;46.988;15.470;2023-07-22T04:48:57;20.00;83.10
22006;DHT22;11167;46.988;15.470;2023-07-22T04:50:58;20.00;83.20
22006;DHT22;11167;46.988;15.470;2023-07-22T04:52:59;20.00;83.20
22006;DHT22;11167;46.988;15.470;2023-07-22T04:55:01;20.00;83.20
22006;DHT22;11167;46.988;15.470;2023-07-22T04:57:04;20.00;83.20
22006;DHT22;11167;46.988;15.470;2023-07-22T04:59:05;20.00;83.30
22006;DHT22;11167;46.988;15.470;2023-07-22T05:01:07;20.00;83.30
22006;DHT22;11167;46.988;15.470;2023-07-22T05:03:10;20.00;83.30
22006;DHT22;11167;46.988;15.470;2023-07-22T05:05:12;19.90;83.20
22006;DHT22;11167;46.988;15.470;2023-07-22T05:07:14;20.00;83.30
22006;DHT22;11167;46.988;15.470;2023-07-22T05:09:15;20.00;83.30
22006;DHT22;11167;46.988;15.470;2023-07-22T05:11:16;20.00;83.30
22006;DHT22;11167;46.988;15.470;2023-07-22T05:13:19;19.90;83.30
22006;DHT22;11167;46.988;15.470;2023-07-22T05:15:20;20.00;84.10
22006;DHT22;11167;46.988;15.470;2023-07-22T05:17:21;19.90;83.40
22006;DHT22;11167;46.988;15.470;2023-07-22T05:19:23;19.90;83.30
22006;DHT22;11167;46.988;15.470;2023-07-22T05:21:24;19.90;83.40
22006;DHT22;11167;46.988;15.470;2023-07-22T05:23:26;19.90;83.30
22006;DHT22;11167;46.988;15.470;2023-07-22T05:25:28;19.90;83.40
22006;DHT22;11167;46.988;15.470;2023-07-22T05:27:29;19.90;83.40
22006;DHT22;11167;46.988;15.470;2023-07-22T05:29:31;19.90;83.40
22006;DHT22;11167;46.988;15.470;2023-07-22T05:31:32;19.90;83.80
22006;DHT22;11167;46.988;15.470;2023-07-22T05:33:33;19.90;83.50
22006;DHT22;11167;46.988;15.470;2023-07-22T05:35:34;19.90;83.50
22006;DHT22;11167;46.988;15.470;2023-07-22T05:37:36;19.90;83.50
22006;DHT22;11167;46.988;15.470;2023-07-22T05:39:37;19.90;83.50
22006;DHT22;11167;46.988;15.470;2023-07-22T05:41:39;19.90;83.50
22006;DHT22;11167;46.988;15.470;2023-07-22T05:43:39;19.90;83.50
22006;DHT22;11167;46.988;15.470;2023-07-22T05:45:40;19.80;83.50
22006;DHT22;11167;46.988;15.470;2023-07-22T05:47:41;19.90;83.50
22006;DHT22;11167;46.988;15.470;2023-07-22T05:49:42;19.80;83.60
22006;DHT22;11167;46.988;15.470;2023-07-22T05:51:43;19.90;83.60
22006;DHT22;11167;46.988;15.470;2023-07-22T05:53:44;19.80;83.60
22006;DHT22;11167;46.988;15.470;2023-07-22T05:55:45;19.80;83.60
22006;DHT22;11167;46.988;15.470;2023-07-22T05:57:46;19.80;83.60
22006;DHT22;11167;46.988;15.470;2023-07-22T05:59:48;19.80;83.60
22006;DHT22;11167;46.988;15.470;2023-07-22T06:01:49;19.80;83.60
22006;DHT22;11167;46.988;15.470;2023-07-22T06:03:50;19.80;83.70
22006;DHT22;11167;46.988;15.470;2023-07-22T06:05:51;19.80;83.60
22006;DHT22;11167;46.988;15.470;2023-07-22T06:07:52;19.80;83.70
22006;DHT22;11167;46.988;15.470;2023-07-22T06:09:55;19.80;83.70
22006;DHT22;11167;46.988;15.470;2023-07-22T06:11:56;19.80;83.70
22006;DHT22;11167;46.988;15.470;2023-07-22T06:13:58;19.80;83.80
22006;DHT22;11167;46.988;15.470;2023-07-22T06:15:59;19.80;83.80
22006;DHT22;11167;46.988;15.470;2023-07-22T06:18:00;19.80;83.80
22006;DHT22;11167;46.988;15.470;2023-07-22T06:20:02;19.80;83.80
22006;DHT22;11167;46.988;15.470;2023-07-22T06:22:03;19.80;83.80
22006;DHT22;11167;46.988;15.470;2023-07-22T06:24:04;19.80;83.90
22006;DHT22;11167;46.988;15.470;2023-07-22T06:26:05;19.80;83.80
22006;DHT22;11167;46.988;15.470;2023-07-22T06:28:07;19.70;83.80
22006;DHT22;11167;46.988;15.470;2023-07-22T06:30:09;19.80;83.80
22006;DHT22;11167;46.988;15.470;2023-07-22T06:32:11;19.80;83.80
22006;DHT22;11167;46.988;15.470;2023-07-22T06:34:12;19.70;83.80
22006;DHT22;11167;46.988;15.470;2023-07-22T06:36:13;19.80;83.90
22006;DHT22;11167;46.988;15.470;2023-07-22T06:38:15;19.80;83.90
22006;DHT22;11167;46.988;15.470;2023-07-22T06:40:17;19.80;83.90
22006;DHT22;11167;46.988;15.470;2023-07-22T06:42:19;19.80;84.00
22006;DHT22;11167;46.988;15.470;2023-07-22T06:44:20;19.70;83.80
22006;DHT22;11167;46.988;15.470;2023-07-22T06:46:22;19.80;84.00
22006;DHT22;11167;46.988;15.470;2023-07-22T06:48:23;19.80;84.00
22006;DHT22;11167;46.988;15.470;2023-07-22T06:50:24;19.80;84.00
22006;DHT22;11167;46.988;15.470;2023-07-22T06:52:25;19.80;84.00
22006;DHT22;11167;46.988;15.470;2023-07-22T06:54:46;19.80;84.00
22006;DHT22;11167;46.988;15.470;2023-07-22T06:56:47;19.70;83.80
22006;DHT22;11167;46.988;15.470;2023-07-22T06:58:48;19.80;84.00
22006;DHT22;11167;46.988;15.470;2023-07-22T07:00:55;19.80;84.00
22006;DHT22;11167;46.988;15.470;2023-07-22T07:02:56;19.80;84.00
22006;DHT22;11167;46.988;15.470;2023-07-22T07:04:57;19.80;84.10
22006;DHT22;11167;46.988;15.470;2023-07-22T07:06:59;19.70;84.00
22006;DHT22;11167;46.988;15.470;2023-07-22T07:09:01;19.70;84.00
22006;DHT22;11167;46.988;15.470;2023-07-22T07:11:02;19.80;85.00
22006;DHT22;11167;46.988;15.470;2023-07-22T07:13:04;19.80;84.00
22006;DHT22;11167;46.988;15.470;2023-07-22T07:15:06;19.80;84.00
22006;DHT22;11167;46.988;15.470;2023-07-22T07:17:08;19.80;84.00
22006;DHT22;11167;46.988;15.470;2023-07-22T07:19:09;19.80;84.00
22006;DHT22;11167;46.988;15.470;2023-07-22T07:21:10;19.70;84.00
22006;DHT22;11167;46.988;15.470;2023-07-22T07:23:13;19.80;84.00
22006;DHT22;11167;46.988;15.470;2023-07-22T07:25:16;19.80;84.00
22006;DHT22;11167;46.988;15.470;2023-07-22T07:27:17;19.70;84.00
22006;DHT22;11167;46.988;15.470;2023-07-22T07:29:18;19.80;84.00
22006;DHT22;11167;46.988;15.470;2023-07-22T07:31:19;19.80;84.00
22006;DHT22;11167;46.988;15.470;2023-07-22T07:33:20;19.80;84.90
22006;DHT22;11167;46.988;15.470;2023-07-22T07:35:21;19.70;84.00
22006;DHT22;11167;46.988;15.470;2023-07-22T07:37:22;19.80;84.00
22006;DHT22;11167;46.988;15.470;2023-07-22T07:39:24;19.80;84.10
22006;DHT22;11167;46.988;15.470;2023-07-22T07:41:25;19.80;84.00
22006;DHT22;11167;46.988;15.470;2023-07-22T07:43:27;19.80;84.30
22006;DHT22;11167;46.988;15.470;2023-07-22T07:45:28;19.80;84.00
22006;DHT22;11167;46.988;15.470;2023-07-22T07:47:29;19.80;84.00
22006;DHT22;11167;46.988;15.470;2023-07-22T07:49:30;19.80;84.00
22006;DHT22;11167;46.988;15.470;2023-07-22T07:51:32;19.80;84.00
22006;DHT22;11167;46.988;15.470;2023-07-22T07:53:33;19.80;84.10
22006;DHT22;11167;46.988;15.470;2023-07-22T07:55:34;19.80;84.00
22006;DHT22;11167;46.988;15.470;2023-07-22T07:57:36;19.80;84.80
22006;DHT22;11167;46.988;15.470;2023-07-22T07:59:37;19.80;84.10
22006;DHT22;11167;46.988;15.470;2023-07-22T08:01:38;19.80;84.80
22006;DHT22;11167;46.988;15.470;2023-07-22T08:03:41;19.80;84.10
22006;DHT22;11167;46.988;15.470;2023-07-22T08:05:42;19.80;84.00
22006;DHT22;11167;46.988;15.470;2023-07-22T08:07:43;19.80;84.00
22006;DHT22;11167;46.988;15.470;2023-07-22T08:09:47;19.80;84.00
22006;DHT22;11167;46.988;15.470;2023-07-22T08:11:49;19.80;84.00
22006;DHT22;11167;46.988;15.470;2023-07-22T08:13:50;19.80;84.00
22006;DHT22;11167;46.988;15.470;2023-07-22T08:15:53;19.80;84.00
22006;DHT22;11167;46.988;15.470;2023-07-22T08:17:54;19.80;84.00
22006;DHT22;11167;46.988;15.470;2023-07-22T08:19:55;19.80;84.00
22006;DHT22;11167;46.988;15.470;2023-07-22T08:21:56;19.80;84.20
22006;DHT22;11167;46.988;15.470;2023-07-22T08:23:57;19.90;84.10
22006;DHT22;11167;46.988;15.470;2023-07-22T08:25:59;19.90;84.10
22006;DHT22;11167;46.988;15.470;2023-07-22T08:28:00;19.90;84.10
22006;DHT22;11167;46.988;15.470;2023-07-22T08:30:01;19.90;84.20
22006;DHT22;11167;46.988;15.470;2023-07-22T08:32:03;19.90;84.10
22006;DHT22;11167;46.988;15.470;2023-07-22T08:34:05;19.90;84.20
22006;DHT22;11167;46.988;15.470;2023-07-22T08:36:07;19.90;84.20
22006;DHT22;11167;46.988;15.470;2023-07-22T08:38:09;19.90;84.20
22006;DHT22;11167;46.988;15.470;2023-07-22T08:40:10;19.90;84.20
22006;DHT22;11167;46.988;15.470;2023-07-22T08:42:13;19.90;84.20
22006;DHT22;11167;46.988;15.470;2023-07-22T08:44:22;20.00;84.30
22006;DHT22;11167;46.988;15.470;2023-07-22T08:46:22;20.00;84.30
22006;DHT22;11167;46.988;15.470;2023-07-22T08:48:26;20.00;84.30
22006;DHT22;11167;46.988;15.470;2023-07-22T08:50:30;20.00;84.30
22006;DHT22;11167;46.988;15.470;2023-07-22T08:52:32;20.00;84.30
22006;DHT22;11167;46.988;15.470;2023-07-22T08:54:34;20.00;84.40
22006;DHT22;11167;46.988;15.470;2023-07-22T08:56:36;20.00;84.40
22006;DHT22;11167;46.988;15.470;2023-07-22T08:58:38;20.00;84.40
22006;DHT22;11167;46.988;15.470;2023-07-22T09:00:40;20.00;84.30
22006;DHT22;11167;46.988;15.470;2023-07-22T09:02:41;20.10;84.40
22006;DHT22;11167;46.988;15.470;2023-07-22T09:04:42;20.10;84.40
22006;DHT22;11167;46.988;15.470;2023-07-22T09:06:45;20.10;84.30
22006;DHT22;11167;46.988;15.470;2023-07-22T09:08:47;20.10;84.40
22006;DHT22;11167;46.988;15.470;2023-07-22T09:10:48;20.10;84.30
22006;DHT22;11167;46.988;15.470;2023-07-22T09:12:51;20.10;84.30
22006;DHT22;11167;46.988;15.470;2023-07-22T09:14:52;20.10;84.30
22006;DHT22;11167;46.988;15.470;2023-07-22T09:16:54;20.10;84.30
22006;DHT22;11167;46.988;15.470;2023-07-22T09:18:57;20.20;84.40
22006;DHT22;11167;46.988;15.470;2023-07-22T09:20:59;20.20;85.20
22006;DHT22;11167;46.988;15.470;2023-07-22T09:23:01;20.20;84.40
22006;DHT22;11167;46.988;15.470;2023-07-22T09:25:21;20.30;84.50
22006;DHT22;11167;46.988;15.470;2023-07-22T09:27:33;20.20;84.40
22006;DHT22;11167;46.988;15.470;2023-07-22T09:29:36;20.20;84.40
22006;DHT22;11167;46.988;15.470;2023-07-22T09:31:54;20.20;84.40
22006;DHT22;11167;46.988;15.470;2023-07-22T09:33:52;20.30;84.50
22006;DHT22;11167;46.988;15.470;2023-07-22T09:35:57;20.30;84.50
22006;DHT22;11167;46.988;15.470;2023-07-22T09:37:59;20.30;84.50
22006;DHT22;11167;46.988;15.470;2023-07-22T09:40:00;20.30;84.50
22006;DHT22;11167;46.988;15.470;2023-07-22T09:42:01;20.30;84.40
22006;DHT22;11167;46.988;15.470;2023-07-22T09:44:04;20.30;84.40
22006;DHT22;11167;46.988;15.470;2023-07-22T09:46:09;20.30;84.50
22006;DHT22;11167;46.988;15.470;2023-07-22T09:48:10;20.30;84.50
22006;DHT22;11167;46.988;15.470;2023-07-22T09:50:19;20.40;84.50
22006;DHT22;11167;46.988;15.470;2023-07-22T09:52:18;20.40;84.50
22006;DHT22;11167;46.988;15.470;2023-07-22T09:54:19;20.40;84.50
22006;DHT22;11167;46.988;15.470;2023-07-22T09:56:20;20.40;84.50
22006;DHT22;11167;46.988;15.470;2023-07-22T09:58:24;20.40;84.50
22006;DHT22;11167;46.988;15.470;2023-07-22T10:00:32;20.50;84.50
22006;DHT22;11167;46.988;15.470;2023-07-22T10:02:35;20.50;84.50
22006;DHT22;11167;46.988;15.470;2023-07-22T10:04:39;20.50;84.50
22006;DHT22;11167;46.988;15.470;2023-07-22T10:06:42;20.50;84.50
22006;DHT22;11167;46.988;15.470;2023-07-22T10:08:43;20.50;84.50
22006;DHT22;11167;46.988;15.470;2023-07-22T10:10:46;20.60;84.50
22006;DHT22;11167;46.988;15.470;2023-07-22T10:12:48;20.60;84.50
22006;DHT22;11167;46.988;15.470;2023-07-22T10:14:51;20.60;85.30
22006;DHT22;11167;46.988;15.470;2023-07-22T10:16:53;20.60;84.50
22006;DHT22;11167;46.988;15.470;2023-07-22T10:18:55;20.60;84.60
22006;DHT22;11167;46.988;15.470;2023-07-22T10:20:57;20.70;84.60
22006;DHT22;11167;46.988;15.470;2023-07-22T10:23:00;20.70;84.60
22006;DHT22;11167;46.988;15.470;2023-07-22T10:25:04;20.70;84.50
22006;DHT22;11167;46.988;15.470;2023-07-22T10:27:07;20.70;84.50
22006;DHT22;11167;46.988;15.470;2023-07-22T10:29:08;20.70;84.50
22006;DHT22;11167;46.988;15.470;2023-07-22T10:31:09;20.80;84.60
22006;DHT22;11167;46.988;15.470;2023-07-22T10:33:11;20.80;84.60
22006;DHT22;11167;46.988;15.470;2023-07-22T10:37:20;20.80;84.50
22006;DHT22;11167;46.988;15.470;2023-07-22T10:39:28;20.80;84.50
22006;DHT22;11167;46.988;15.470;2023-07-22T10:41:29;20.90;84.60
22006;DHT22;11167;46.988;15.470;2023-07-22T10:43:32;20.90;84.60
22006;DHT22;11167;46.988;15.470;2023-07-22T10:45:45;20.90;84.50
22006;DHT22;11167;46.988;15.470;2023-07-22T10:47:48;20.90;84.50
22006;DHT22;11167;46.988;15.470;2023-07-22T10:49:52;20.90;84.50
22006;DHT22;11167;46.988;15.470;2023-07-22T10:51:53;21.00;84.50
22006;DHT22;11167;46.988;15.470;2023-07-22T10:53:55;21.00;84.80
22006;DHT22;11167;46.988;15.470;2023-07-22T10:58:07;21.00;84.40
22006;DHT22;11167;46.988;15.470;2023-07-22T11:00:17;21.00;84.40
22006;DHT22;11167;46.988;15.470;2023-07-22T11:04:27;21.10;84.50
22006;DHT22;11167;46.988;15.470;2023-07-22T11:08:55;21.10;84.50
22006;DHT22;11167;46.988;15.470;2023-07-22T11:10:59;21.20;84.50
22006;DHT22;11167;46.988;15.470;2023-07-22T11:13:00;21.20;84.50
22006;DHT22;11167;46.988;15.470;2023-07-22T11:15:06;21.20;84.40
22006;DHT22;11167;46.988;15.470;2023-07-22T11:17:08;21.20;84.50
22006;DHT22;11167;46.988;15.470;2023-07-22T11:19:09;21.30;84.50
22006;DHT22;11167;46.988;15.470;2023-07-22T11:21:12;21.30;84.50
22006;DHT22;11167;46.988;15.470;2023-07-22T11:23:14;21.30;84.50
22006;DHT22;11167;46.988;15.470;2023-07-22T11:25:18;21.30;84.50
22006;DHT22;11167;46.988;15.470;2023-07-22T11:27:19;21.40;84.60
22006;DHT22;11167;46.988;15.470;2023-07-22T11:29:20;21.40;84.60
22006;DHT22;11167;46.988;15.470;2023-07-22T11:31:42;21.40;84.60
22006;DHT22;11167;46.988;15.470;2023-07-22T11:33:45;21.50;84.60
22006;DHT22;11167;46.988;15.470;2023-07-22T11:35:48;21.50;84.70
22006;DHT22;11167;46.988;15.470;2023-07-22T11:37:49;21.50;84.60
22006;DHT22;11167;46.988;15.470;2023-07-22T11:39:50;21.50;84.70
22006;DHT22;11167;46.988;15.470;2023-07-22T11:41:51;21.60;84.70
22006;DHT22;11167;46.988;15.470;2023-07-22T11:43:52;21.60;84.70
22006;DHT22;11167;46.988;15.470;2023-07-22T11:45:55;21.60;84.70
22006;DHT22;11167;46.988;15.470;2023-07-22T11:47:56;21.70;84.70
22006;DHT22;11167;46.988;15.470;2023-07-22T11:49:58;21.70;84.70
22006;DHT22;11167;46.988;15.470;2023-07-22T11:52:02;21.70;84.80
22006;DHT22;11167;46.988;15.470;2023-07-22T11:54:07;21.80;84.90
22006;DHT22;11167;46.988;15.470;2023-07-22T11:56:08;21.80;84.90
22006;DHT22;11167;46.988;15.470;2023-07-22T11:58:10;21.80;84.90
22006;DHT22;11167;46.988;15.470;2023-07-22T12:00:11;21.80;84.90
22006;DHT22;11167;46.988;15.470;2023-07-22T12:02:17;21.90;84.90
22006;DHT22;11167;46.988;15.470;2023-07-22T12:04:23;21.90;84.90
22006;DHT22;11167;46.988;15.470;2023-07-22T12:06:27;21.90;84.90
22006;DHT22;11167;46.988;15.470;2023-07-22T12:08:29;22.00;85.00
22006;DHT22;11167;46.988;15.470;2023-07-22T12:10:30;22.00;85.00
22006;DHT22;11167;46.988;15.470;2023-07-22T12:12:36;22.00;85.00
22006;DHT22;11167;46.988;15.470;2023-07-22T12:14:38;22.10;85.10
22006;DHT22;11167;46.988;15.470;2023-07-22T12:16:42;22.10;85.20
22006;DHT22;11167;46.988;15.470;2023-07-22T12:18:44;22.10;85.10
22006;DHT22;11167;46.988;15.470;2023-07-22T12:20:45;22.20;85.20
22006;DHT22;11167;46.988;15.470;2023-07-22T12:22:48;22.20;86.00
22006;DHT22;11167;46.988;15.470;2023-07-22T12:24:49;22.30;85.20
22006;DHT22;11167;46.988;15.470;2023-07-22T12:26:50;22.30;85.20
22006;DHT22;11167;46.988;15.470;2023-07-22T12:28:51;22.30;85.20
22006;DHT22;11167;46.988;15.470;2023-07-22T12:30:52;22.40;85.20
22006;DHT22;11167;46.988;15.470;2023-07-22T12:32:53;22.40;85.30
22006;DHT22;11167;46.988;15.470;2023-07-22T12:34:55;22.40;85.30
22006;DHT22;11167;46.988;15.470;2023-07-22T12:36:56;22.50;85.30
22006;DHT22;11167;46.988;15.470;2023-07-22T12:38:57;22.50;85.30
22006;DHT22;11167;46.988;15.470;2023-07-22T12:40:58;22.50;85.30
22006;DHT22;11167;46.988;15.470;2023-07-22T12:42:59;22.60;85.30
22006;DHT22;11167;46.988;15.470;2023-07-22T12:45:02;22.60;85.30
22006;DHT22;11167;46.988;15.470;2023-07-22T12:47:04;22.60;85.30